Skip Navigation LinksHome page > Weather > Current weather Skip Navigation Links

Current Weather

Sarh, Chad

For information only: do not use for flight planning or navigation.
Latest weather
Observation time Monday, August 3, 2015 11:00 AM WAT
Local time Monday, August 3, 2015 11:36 AM WAT
Flight conditions Visual Meteorological Conditions
Winds
Wind direction Northwest (320°)
Wind speed 5 mph
Visibility 6.2 mi.
Sky condition
Ceiling 4,000 ft. broken clouds
Cloud layer scattered clouds 3,000 ft.
Cloud layer broken clouds 4,000 ft.
Temperature 88°F
Dewpoint 81°F
Altimeter 29.97 in.Hg
Derived measurements
Relative humidity 79%
Heat index 105°F
Density altitude 2608 ft.
METAR FTTA 031000Z 32004KT 9999 SCT030 BKN040 31/27 Q1015

Settings

Location code

InnerDrive.Weather 4.0.5567.0 Release CLR 4.0.30319.34014
Copyright ©2015 Inner Drive Technology. All rights reserved. Portions Copyright ©1986-2015 David Braverman.

Find weather

Site navigation


Skip Navigation Links

Place info

Page info

PayPal - The safer, easier way to pay online!

Return home.

Copyright ©2015 Inner Drive Technology. Purveyors of fine, hand-crafted computer software. Page printed 2015-08-03T10:36:18 UTC.